sensor_id;sensor_type;location;lat;lon;timestamp;temperature;humidity
16408;DHT22;8313;49.894;8.084;2023-08-31T00:00:45;15.10;99.90
16408;DHT22;8313;49.894;8.084;2023-08-31T00:03:12;15.10;99.90
16408;DHT22;8313;49.894;8.084;2023-08-31T00:05:41;15.20;99.90
16408;DHT22;8313;49.894;8.084;2023-08-31T00:08:07;15.20;99.90
16408;DHT22;8313;49.894;8.084;2023-08-31T00:10:36;15.00;99.90
16408;DHT22;8313;49.894;8.084;2023-08-31T00:13:02;14.90;99.90
16408;DHT22;8313;49.894;8.084;2023-08-31T00:15:28;14.90;99.90
16408;DHT22;8313;49.894;8.084;2023-08-31T00:17:55;14.90;99.90
16408;DHT22;8313;49.894;8.084;2023-08-31T00:20:20;14.70;99.90
16408;DHT22;8313;49.894;8.084;2023-08-31T00:22:47;14.50;99.90
16408;DHT22;8313;49.894;8.084;2023-08-31T00:25:13;14.50;99.90
16408;DHT22;8313;49.894;8.084;2023-08-31T00:27:39;14.60;99.90
16408;DHT22;8313;49.894;8.084;2023-08-31T00:30:07;14.80;99.90
16408;DHT22;8313;49.894;8.084;2023-08-31T00:32:36;14.80;99.90
16408;DHT22;8313;49.894;8.084;2023-08-31T00:35:02;14.90;99.90
16408;DHT22;8313;49.894;8.084;2023-08-31T00:37:29;15.00;99.90
16408;DHT22;8313;49.894;8.084;2023-08-31T00:39:55;14.80;99.90
16408;DHT22;8313;49.894;8.084;2023-08-31T00:42:20;14.80;99.90
16408;DHT22;8313;49.894;8.084;2023-08-31T00:44:47;14.70;99.90
16408;DHT22;8313;49.894;8.084;2023-08-31T00:47:16;14.80;99.90
16408;DHT22;8313;49.894;8.084;2023-08-31T00:49:42;14.70;99.90
16408;DHT22;8313;49.894;8.084;2023-08-31T00:52:08;14.70;99.90
16408;DHT22;8313;49.894;8.084;2023-08-31T00:54:35;14.60;99.90
16408;DHT22;8313;49.894;8.084;2023-08-31T00:57:01;14.60;99.90
16408;DHT22;8313;49.894;8.084;2023-08-31T00:59:27;14.60;99.90
16408;DHT22;8313;49.894;8.084;2023-08-31T01:07:39;14.50;99.90
16408;DHT22;8313;49.894;8.084;2023-08-31T01:10:22;14.50;99.90
16408;DHT22;8313;49.894;8.084;2023-08-31T01:12:54;14.40;99.90
16408;DHT22;8313;49.894;8.084;2023-08-31T01:15:20;14.20;99.90
16408;DHT22;8313;49.894;8.084;2023-08-31T01:17:54;14.10;99.90
16408;DHT22;8313;49.894;8.084;2023-08-31T01:23:02;14.00;99.90
16408;DHT22;8313;49.894;8.084;2023-08-31T01:25:32;14.00;99.90
16408;DHT22;8313;49.894;8.084;2023-08-31T01:27:59;13.90;99.90
16408;DHT22;8313;49.894;8.084;2023-08-31T01:30:25;14.00;99.90
16408;DHT22;8313;49.894;8.084;2023-08-31T01:32:50;14.10;99.90
16408;DHT22;8313;49.894;8.084;2023-08-31T01:35:17;14.20;99.90
16408;DHT22;8313;49.894;8.084;2023-08-31T01:37:50;14.40;99.90
16408;DHT22;8313;49.894;8.084;2023-08-31T01:40:20;14.50;99.90
16408;DHT22;8313;49.894;8.084;2023-08-31T01:42:49;14.50;99.90
16408;DHT22;8313;49.894;8.084;2023-08-31T01:45:20;14.50;99.90
16408;DHT22;8313;49.894;8.084;2023-08-31T01:47:46;14.60;99.90
16408;DHT22;8313;49.894;8.084;2023-08-31T01:50:12;14.60;99.90
16408;DHT22;8313;49.894;8.084;2023-08-31T01:52:39;14.50;99.90
16408;DHT22;8313;49.894;8.084;2023-08-31T01:55:05;14.40;99.90
16408;DHT22;8313;49.894;8.084;2023-08-31T01:57:32;14.30;99.90
16408;DHT22;8313;49.894;8.084;2023-08-31T02:00:10;14.20;99.90
16408;DHT22;8313;49.894;8.084;2023-08-31T02:02:42;14.20;99.90
16408;DHT22;8313;49.894;8.084;2023-08-31T02:05:09;14.20;99.90
16408;DHT22;8313;49.894;8.084;2023-08-31T02:07:35;14.30;99.90
16408;DHT22;8313;49.894;8.084;2023-08-31T02:10:01;14.40;99.90
16408;DHT22;8313;49.894;8.084;2023-08-31T02:12:27;14.60;99.90
16408;DHT22;8313;49.894;8.084;2023-08-31T02:14:53;14.70;99.90
16408;DHT22;8313;49.894;8.084;2023-08-31T02:17:19;14.60;99.90
16408;DHT22;8313;49.894;8.084;2023-08-31T02:19:44;14.50;99.90
16408;DHT22;8313;49.894;8.084;2023-08-31T02:22:10;14.60;99.90
16408;DHT22;8313;49.894;8.084;2023-08-31T02:24:36;14.60;99.90
16408;DHT22;8313;49.894;8.084;2023-08-31T02:27:01;14.60;99.90
16408;DHT22;8313;49.894;8.084;2023-08-31T02:29:27;14.60;99.90
16408;DHT22;8313;49.894;8.084;2023-08-31T02:31:53;14.60;99.90
16408;DHT22;8313;49.894;8.084;2023-08-31T02:34:19;14.50;99.90
16408;DHT22;8313;49.894;8.084;2023-08-31T02:36:44;14.40;99.90
16408;DHT22;8313;49.894;8.084;2023-08-31T02:39:10;14.30;99.90
16408;DHT22;8313;49.894;8.084;2023-08-31T02:41:36;14.20;99.90
16408;DHT22;8313;49.894;8.084;2023-08-31T02:44:04;14.20;99.90
16408;DHT22;8313;49.894;8.084;2023-08-31T02:46:31;14.10;99.90
16408;DHT22;8313;49.894;8.084;2023-08-31T02:48:56;14.20;99.90
16408;DHT22;8313;49.894;8.084;2023-08-31T02:51:22;14.30;99.90
16408;DHT22;8313;49.894;8.084;2023-08-31T02:53:48;14.40;99.90
16408;DHT22;8313;49.894;8.084;2023-08-31T02:56:14;14.50;99.90
16408;DHT22;8313;49.894;8.084;2023-08-31T02:58:40;14.60;99.90
16408;DHT22;8313;49.894;8.084;2023-08-31T03:01:09;14.60;99.90
16408;DHT22;8313;49.894;8.084;2023-08-31T03:03:42;14.70;99.90
16408;DHT22;8313;49.894;8.084;2023-08-31T03:06:09;14.70;99.90
16408;DHT22;8313;49.894;8.084;2023-08-31T03:08:35;14.70;99.90
16408;DHT22;8313;49.894;8.084;2023-08-31T03:11:02;14.60;99.90
16408;DHT22;8313;49.894;8.084;2023-08-31T03:13:28;14.50;99.90
16408;DHT22;8313;49.894;8.084;2023-08-31T03:15:54;14.50;99.90
16408;DHT22;8313;49.894;8.084;2023-08-31T03:18:23;14.60;99.90
16408;DHT22;8313;49.894;8.084;2023-08-31T03:20:49;14.60;99.90
16408;DHT22;8313;49.894;8.084;2023-08-31T03:23:15;14.60;99.90
16408;DHT22;8313;49.894;8.084;2023-08-31T03:25:41;14.50;99.90
16408;DHT22;8313;49.894;8.084;2023-08-31T03:28:07;14.40;99.90
16408;DHT22;8313;49.894;8.084;2023-08-31T03:30:34;14.20;99.90
16408;DHT22;8313;49.894;8.084;2023-08-31T03:32:59;14.20;99.90
16408;DHT22;8313;49.894;8.084;2023-08-31T03:35:25;14.30;99.90
16408;DHT22;8313;49.894;8.084;2023-08-31T03:37:57;14.20;99.90
16408;DHT22;8313;49.894;8.084;2023-08-31T03:40:22;14.20;99.90
16408;DHT22;8313;49.894;8.084;2023-08-31T03:42:50;14.20;99.90
16408;DHT22;8313;49.894;8.084;2023-08-31T03:45:15;14.00;99.90
16408;DHT22;8313;49.894;8.084;2023-08-31T03:47:41;13.70;99.90
16408;DHT22;8313;49.894;8.084;2023-08-31T03:50:07;13.60;99.90
16408;DHT22;8313;49.894;8.084;2023-08-31T03:52:34;13.60;99.90
16408;DHT22;8313;49.894;8.084;2023-08-31T03:54:59;13.60;99.90
16408;DHT22;8313;49.894;8.084;2023-08-31T03:57:25;13.50;99.90
16408;DHT22;8313;49.894;8.084;2023-08-31T03:59:54;13.50;99.90
16408;DHT22;8313;49.894;8.084;2023-08-31T04:02:20;13.50;99.90
16408;DHT22;8313;49.894;8.084;2023-08-31T04:04:45;13.60;99.90
16408;DHT22;8313;49.894;8.084;2023-08-31T04:07:13;13.50;99.90
16408;DHT22;8313;49.894;8.084;2023-08-31T04:09:39;13.50;99.90
16408;DHT22;8313;49.894;8.084;2023-08-31T04:12:05;13.40;99.90
16408;DHT22;8313;49.894;8.084;2023-08-31T04:14:31;13.30;99.90
16408;DHT22;8313;49.894;8.084;2023-08-31T04:16:57;13.10;99.90
16408;DHT22;8313;49.894;8.084;2023-08-31T04:19:23;13.10;99.90
16408;DHT22;8313;49.894;8.084;2023-08-31T04:21:48;13.20;99.90
16408;DHT22;8313;49.894;8.084;2023-08-31T04:24:14;13.10;99.90
16408;DHT22;8313;49.894;8.084;2023-08-31T04:26:40;13.10;99.90
16408;DHT22;8313;49.894;8.084;2023-08-31T04:29:06;13.10;99.90
16408;DHT22;8313;49.894;8.084;2023-08-31T04:31:32;13.00;99.90
16408;DHT22;8313;49.894;8.084;2023-08-31T04:33:58;13.20;99.90
16408;DHT22;8313;49.894;8.084;2023-08-31T04:36:24;13.20;99.90
16408;DHT22;8313;49.894;8.084;2023-08-31T04:38:51;13.20;99.90
16408;DHT22;8313;49.894;8.084;2023-08-31T04:41:17;13.20;99.90
16408;DHT22;8313;49.894;8.084;2023-08-31T04:43:42;13.30;99.90
16408;DHT22;8313;49.894;8.084;2023-08-31T04:46:08;13.30;99.90
16408;DHT22;8313;49.894;8.084;2023-08-31T04:48:35;13.40;99.90
16408;DHT22;8313;49.894;8.084;2023-08-31T04:51:02;13.40;99.90
16408;DHT22;8313;49.894;8.084;2023-08-31T04:53:29;13.30;99.90
16408;DHT22;8313;49.894;8.084;2023-08-31T04:55:55;13.30;99.90
16408;DHT22;8313;49.894;8.084;2023-08-31T04:58:21;13.30;99.90
16408;DHT22;8313;49.894;8.084;2023-08-31T05:00:47;13.30;99.90
16408;DHT22;8313;49.894;8.084;2023-08-31T05:03:13;13.20;99.90
16408;DHT22;8313;49.894;8.084;2023-08-31T05:05:39;13.00;99.90
16408;DHT22;8313;49.894;8.084;2023-08-31T05:08:05;12.80;99.90
16408;DHT22;8313;49.894;8.084;2023-08-31T05:10:31;12.90;99.90
16408;DHT22;8313;49.894;8.084;2023-08-31T05:12:56;12.60;99.90
16408;DHT22;8313;49.894;8.084;2023-08-31T05:15:22;12.50;99.90
16408;DHT22;8313;49.894;8.084;2023-08-31T05:17:48;12.50;99.90
16408;DHT22;8313;49.894;8.084;2023-08-31T05:20:14;12.60;99.90
16408;DHT22;8313;49.894;8.084;2023-08-31T05:22:40;12.50;99.90
16408;DHT22;8313;49.894;8.084;2023-08-31T05:25:05;12.50;99.90
16408;DHT22;8313;49.894;8.084;2023-08-31T05:27:31;12.50;99.90
16408;DHT22;8313;49.894;8.084;2023-08-31T05:29:57;12.60;99.90
16408;DHT22;8313;49.894;8.084;2023-08-31T05:32:22;12.50;99.90
16408;DHT22;8313;49.894;8.084;2023-08-31T05:34:48;12.60;99.90
16408;DHT22;8313;49.894;8.084;2023-08-31T05:37:14;12.50;99.90
16408;DHT22;8313;49.894;8.084;2023-08-31T05:39:40;12.60;99.90
16408;DHT22;8313;49.894;8.084;2023-08-31T05:42:05;12.60;99.90
16408;DHT22;8313;49.894;8.084;2023-08-31T05:44:31;12.70;99.90
16408;DHT22;8313;49.894;8.084;2023-08-31T05:46:57;12.70;99.90
16408;DHT22;8313;49.894;8.084;2023-08-31T05:49:22;12.80;99.90
16408;DHT22;8313;49.894;8.084;2023-08-31T05:51:49;12.80;99.90
16408;DHT22;8313;49.894;8.084;2023-08-31T05:54:16;12.80;99.90
16408;DHT22;8313;49.894;8.084;2023-08-31T05:56:42;12.90;99.90
16408;DHT22;8313;49.894;8.084;2023-08-31T05:59:07;12.90;99.90
16408;DHT22;8313;49.894;8.084;2023-08-31T06:01:34;12.90;99.90
16408;DHT22;8313;49.894;8.084;2023-08-31T06:04:00;12.90;99.90
16408;DHT22;8313;49.894;8.084;2023-08-31T06:06:26;13.00;99.90
16408;DHT22;8313;49.894;8.084;2023-08-31T06:08:52;13.10;99.90
16408;DHT22;8313;49.894;8.084;2023-08-31T06:11:19;13.10;99.90
16408;DHT22;8313;49.894;8.084;2023-08-31T06:13:44;13.10;99.90
16408;DHT22;8313;49.894;8.084;2023-08-31T06:16:10;13.10;99.90
16408;DHT22;8313;49.894;8.084;2023-08-31T06:18:36;13.10;99.90
16408;DHT22;8313;49.894;8.084;2023-08-31T06:21:01;13.10;99.90
16408;DHT22;8313;49.894;8.084;2023-08-31T06:23:27;13.10;99.90
16408;DHT22;8313;49.894;8.084;2023-08-31T06:25:53;13.20;99.90
16408;DHT22;8313;49.894;8.084;2023-08-31T06:28:18;13.20;99.90
16408;DHT22;8313;49.894;8.084;2023-08-31T06:30:44;13.20;99.90
16408;DHT22;8313;49.894;8.084;2023-08-31T06:33:16;13.20;99.90
16408;DHT22;8313;49.894;8.084;2023-08-31T06:35:47;13.20;99.90
16408;DHT22;8313;49.894;8.084;2023-08-31T06:38:17;13.20;99.90
16408;DHT22;8313;49.894;8.084;2023-08-31T06:40:43;13.30;99.90
16408;DHT22;8313;49.894;8.084;2023-08-31T06:43:09;13.30;99.90
16408;DHT22;8313;49.894;8.084;2023-08-31T06:45:35;13.40;99.90
16408;DHT22;8313;49.894;8.084;2023-08-31T06:48:01;13.30;99.90
16408;DHT22;8313;49.894;8.084;2023-08-31T06:50:28;13.50;99.90
16408;DHT22;8313;49.894;8.084;2023-08-31T06:52:53;13.50;99.90
16408;DHT22;8313;49.894;8.084;2023-08-31T06:55:19;13.60;99.90
16408;DHT22;8313;49.894;8.084;2023-08-31T06:57:45;13.60;99.90
16408;DHT22;8313;49.894;8.084;2023-08-31T07:00:11;13.60;99.90
16408;DHT22;8313;49.894;8.084;2023-08-31T07:02:40;13.70;99.90
16408;DHT22;8313;49.894;8.084;2023-08-31T07:05:06;13.80;99.90
16408;DHT22;8313;49.894;8.084;2023-08-31T07:07:32;13.90;99.90
16408;DHT22;8313;49.894;8.084;2023-08-31T07:09:57;13.90;99.90
16408;DHT22;8313;49.894;8.084;2023-08-31T07:12:23;13.90;99.90
16408;DHT22;8313;49.894;8.084;2023-08-31T07:14:49;14.00;99.90
16408;DHT22;8313;49.894;8.084;2023-08-31T07:17:18;14.00;99.90
16408;DHT22;8313;49.894;8.084;2023-08-31T07:19:44;14.00;99.90
16408;DHT22;8313;49.894;8.084;2023-08-31T07:22:10;14.10;99.90
16408;DHT22;8313;49.894;8.084;2023-08-31T07:24:36;14.20;99.90
16408;DHT22;8313;49.894;8.084;2023-08-31T07:27:04;14.20;99.90
16408;DHT22;8313;49.894;8.084;2023-08-31T07:29:31;14.20;99.90
16408;DHT22;8313;49.894;8.084;2023-08-31T07:31:57;14.30;99.90
16408;DHT22;8313;49.894;8.084;2023-08-31T07:34:23;14.40;99.90
16408;DHT22;8313;49.894;8.084;2023-08-31T07:36:48;14.40;99.90
16408;DHT22;8313;49.894;8.084;2023-08-31T07:39:14;14.50;99.90
16408;DHT22;8313;49.894;8.084;2023-08-31T07:41:43;14.60;99.90
16408;DHT22;8313;49.894;8.084;2023-08-31T07:44:09;14.70;99.90
16408;DHT22;8313;49.894;8.084;2023-08-31T07:46:34;14.70;99.90
16408;DHT22;8313;49.894;8.084;2023-08-31T07:49:00;14.80;99.90
16408;DHT22;8313;49.894;8.084;2023-08-31T07:51:26;14.80;99.90
16408;DHT22;8313;49.894;8.084;2023-08-31T07:53:52;14.90;99.90
16408;DHT22;8313;49.894;8.084;2023-08-31T07:56:18;14.90;99.90
16408;DHT22;8313;49.894;8.084;2023-08-31T07:58:44;15.00;99.90
16408;DHT22;8313;49.894;8.084;2023-08-31T08:01:09;15.10;99.90
16408;DHT22;8313;49.894;8.084;2023-08-31T08:03:35;15.20;99.90
16408;DHT22;8313;49.894;8.084;2023-08-31T08:06:01;15.30;99.90
16408;DHT22;8313;49.894;8.084;2023-08-31T08:08:26;15.40;99.90
16408;DHT22;8313;49.894;8.084;2023-08-31T08:10:53;15.60;99.90
16408;DHT22;8313;49.894;8.084;2023-08-31T08:13:19;15.60;99.90
16408;DHT22;8313;49.894;8.084;2023-08-31T08:15:48;15.70;99.90
16408;DHT22;8313;49.894;8.084;2023-08-31T08:18:14;15.70;99.90
16408;DHT22;8313;49.894;8.084;2023-08-31T08:20:42;15.80;99.90
16408;DHT22;8313;49.894;8.084;2023-08-31T08:23:08;16.00;99.90
16408;DHT22;8313;49.894;8.084;2023-08-31T08:25:34;16.00;99.90
16408;DHT22;8313;49.894;8.084;2023-08-31T08:27:59;16.10;99.90
16408;DHT22;8313;49.894;8.084;2023-08-31T08:30:25;16.10;99.90
16408;DHT22;8313;49.894;8.084;2023-08-31T08:32:51;16.20;99.90
16408;DHT22;8313;49.894;8.084;2023-08-31T08:35:17;16.30;99.90
16408;DHT22;8313;49.894;8.084;2023-08-31T08:37:43;16.40;99.90
16408;DHT22;8313;49.894;8.084;2023-08-31T08:40:10;16.60;99.90
16408;DHT22;8313;49.894;8.084;2023-08-31T08:42:41;16.70;99.90
16408;DHT22;8313;49.894;8.084;2023-08-31T08:45:13;16.70;99.90
16408;DHT22;8313;49.894;8.084;2023-08-31T08:47:42;16.80;99.90
16408;DHT22;8313;49.894;8.084;2023-08-31T08:50:09;16.80;99.90
16408;DHT22;8313;49.894;8.084;2023-08-31T08:52:35;16.90;99.90
16408;DHT22;8313;49.894;8.084;2023-08-31T08:55:01;16.90;99.90
16408;DHT22;8313;49.894;8.084;2023-08-31T08:57:28;16.90;99.90
16408;DHT22;8313;49.894;8.084;2023-08-31T08:59:57;16.90;99.90
16408;DHT22;8313;49.894;8.084;2023-08-31T09:02:22;16.80;99.90
16408;DHT22;8313;49.894;8.084;2023-08-31T09:04:48;16.80;99.90
16408;DHT22;8313;49.894;8.084;2023-08-31T09:07:14;16.80;99.90
16408;DHT22;8313;49.894;8.084;2023-08-31T09:09:51;16.90;99.90
16408;DHT22;8313;49.894;8.084;2023-08-31T09:12:17;16.90;99.90
16408;DHT22;8313;49.894;8.084;2023-08-31T09:14:43;16.90;99.90
16408;DHT22;8313;49.894;8.084;2023-08-31T09:17:08;16.90;99.90
16408;DHT22;8313;49.894;8.084;2023-08-31T09:19:34;16.90;99.90
16408;DHT22;8313;49.894;8.084;2023-08-31T09:22:00;17.00;99.90
16408;DHT22;8313;49.894;8.084;2023-08-31T09:24:26;17.10;99.90
16408;DHT22;8313;49.894;8.084;2023-08-31T09:26:58;17.30;99.90
16408;DHT22;8313;49.894;8.084;2023-08-31T09:29:24;17.40;99.90
16408;DHT22;8313;49.894;8.084;2023-08-31T09:31:50;17.40;99.90
16408;DHT22;8313;49.894;8.084;2023-08-31T09:34:17;17.50;99.90
16408;DHT22;8313;49.894;8.084;2023-08-31T09:36:43;17.60;99.90
16408;DHT22;8313;49.894;8.084;2023-08-31T09:39:09;17.70;99.90
16408;DHT22;8313;49.894;8.084;2023-08-31T09:41:55;17.90;99.90
16408;DHT22;8313;49.894;8.084;2023-08-31T09:44:21;18.00;99.90
16408;DHT22;8313;49.894;8.084;2023-08-31T09:46:47;18.10;99.90
16408;DHT22;8313;49.894;8.084;2023-08-31T09:49:14;18.30;99.90
16408;DHT22;8313;49.894;8.084;2023-08-31T09:51:47;18.40;99.90
16408;DHT22;8313;49.894;8.084;2023-08-31T09:54:15;18.40;99.90
16408;DHT22;8313;49.894;8.084;2023-08-31T09:56:43;18.40;99.90
16408;DHT22;8313;49.894;8.084;2023-08-31T09:59:10;18.20;99.90
16408;DHT22;8313;49.894;8.084;2023-08-31T10:01:37;18.30;99.90
16408;DHT22;8313;49.894;8.084;2023-08-31T10:04:03;18.40;99.90
16408;DHT22;8313;49.894;8.084;2023-08-31T10:06:31;18.30;99.90
16408;DHT22;8313;49.894;8.084;2023-08-31T10:08:57;18.40;99.90
16408;DHT22;8313;49.894;8.084;2023-08-31T10:11:26;18.50;99.90
16408;DHT22;8313;49.894;8.084;2023-08-31T10:13:53;18.60;99.90
16408;DHT22;8313;49.894;8.084;2023-08-31T10:16:20;18.90;99.90
16408;DHT22;8313;49.894;8.084;2023-08-31T10:18:47;19.10;99.90
16408;DHT22;8313;49.894;8.084;2023-08-31T10:21:16;19.20;99.90
16408;DHT22;8313;49.894;8.084;2023-08-31T10:23:46;19.30;99.90
16408;DHT22;8313;49.894;8.084;2023-08-31T10:26:12;19.20;99.90
16408;DHT22;8313;49.894;8.084;2023-08-31T10:28:47;19.40;99.90
16408;DHT22;8313;49.894;8.084;2023-08-31T10:31:17;19.70;99.90
16408;DHT22;8313;49.894;8.084;2023-08-31T10:33:46;19.80;99.90
16408;DHT22;8313;49.894;8.084;2023-08-31T10:36:16;19.90;99.90
16408;DHT22;8313;49.894;8.084;2023-08-31T10:38:45;19.90;99.90
16408;DHT22;8313;49.894;8.084;2023-08-31T10:43:50;20.20;99.90
16408;DHT22;8313;49.894;8.084;2023-08-31T10:46:34;20.10;99.90
16408;DHT22;8313;49.894;8.084;2023-08-31T10:51:37;20.50;99.90
16408;DHT22;8313;49.894;8.084;2023-08-31T10:59:20;20.60;99.90
16408;DHT22;8313;49.894;8.084;2023-08-31T11:01:59;20.60;99.90
16408;DHT22;8313;49.894;8.084;2023-08-31T11:04:30;20.60;99.90
16408;DHT22;8313;49.894;8.084;2023-08-31T11:07:18;20.70;99.90
16408;DHT22;8313;49.894;8.084;2023-08-31T11:09:45;20.80;99.90
16408;DHT22;8313;49.894;8.084;2023-08-31T11:12:12;21.10;99.90
16408;DHT22;8313;49.894;8.084;2023-08-31T11:14:39;21.10;99.90
16408;DHT22;8313;49.894;8.084;2023-08-31T11:17:05;21.00;99.90
16408;DHT22;8313;49.894;8.084;2023-08-31T11:19:35;21.20;99.90
16408;DHT22;8313;49.894;8.084;2023-08-31T11:22:02;21.20;99.90
16408;DHT22;8313;49.894;8.084;2023-08-31T11:24:32;21.60;99.90
16408;DHT22;8313;49.894;8.084;2023-08-31T11:26:58;21.60;99.90
16408;DHT22;8313;49.894;8.084;2023-08-31T11:29:24;21.60;99.90
16408;DHT22;8313;49.894;8.084;2023-08-31T11:31:49;21.70;99.90
16408;DHT22;8313;49.894;8.084;2023-08-31T11:34:16;21.80;99.90
16408;DHT22;8313;49.894;8.084;2023-08-31T11:36:43;22.00;99.90
16408;DHT22;8313;49.894;8.084;2023-08-31T11:39:10;21.80;99.90
16408;DHT22;8313;49.894;8.084;2023-08-31T11:41:36;21.70;99.90
16408;DHT22;8313;49.894;8.084;2023-08-31T11:44:08;21.40;99.90
16408;DHT22;8313;49.894;8.084;2023-08-31T11:46:38;21.20;99.90
16408;DHT22;8313;49.894;8.084;2023-08-31T11:49:05;21.10;99.90
16408;DHT22;8313;49.894;8.084;2023-08-31T11:51:32;21.00;99.90
16408;DHT22;8313;49.894;8.084;2023-08-31T11:54:02;21.00;99.90
16408;DHT22;8313;49.894;8.084;2023-08-31T11:56:38;20.90;99.90
16408;DHT22;8313;49.894;8.084;2023-08-31T11:59:10;20.60;99.90
16408;DHT22;8313;49.894;8.084;2023-08-31T12:01:38;20.60;99.90
16408;DHT22;8313;49.894;8.084;2023-08-31T12:04:21;20.50;99.90
16408;DHT22;8313;49.894;8.084;2023-08-31T12:06:52;20.40;99.90
16408;DHT22;8313;49.894;8.084;2023-08-31T12:09:20;20.40;99.90
16408;DHT22;8313;49.894;8.084;2023-08-31T12:11:52;20.40;99.90
16408;DHT22;8313;49.894;8.084;2023-08-31T12:14:24;20.50;99.90
16408;DHT22;8313;49.894;8.084;2023-08-31T12:16:51;20.70;99.90
16408;DHT22;8313;49.894;8.084;2023-08-31T12:19:17;21.00;99.90
16408;DHT22;8313;49.894;8.084;2023-08-31T12:21:45;20.90;99.90
16408;DHT22;8313;49.894;8.084;2023-08-31T12:24:12;20.80;99.90
16408;DHT22;8313;49.894;8.084;2023-08-31T12:26:38;20.70;99.90
16408;DHT22;8313;49.894;8.084;2023-08-31T12:29:04;20.50;99.90
16408;DHT22;8313;49.894;8.084;2023-08-31T12:31:31;20.40;99.90
16408;DHT22;8313;49.894;8.084;2023-08-31T12:33:57;20.30;99.90
16408;DHT22;8313;49.894;8.084;2023-08-31T12:36:23;20.30;99.90
16408;DHT22;8313;49.894;8.084;2023-08-31T12:38:49;20.50;99.90
16408;DHT22;8313;49.894;8.084;2023-08-31T12:41:14;20.40;99.90
16408;DHT22;8313;49.894;8.084;2023-08-31T12:43:40;20.40;99.90
16408;DHT22;8313;49.894;8.084;2023-08-31T12:46:06;20.60;99.90
16408;DHT22;8313;49.894;8.084;2023-08-31T12:48:32;20.70;99.90
16408;DHT22;8313;49.894;8.084;2023-08-31T12:50:58;20.80;99.90
16408;DHT22;8313;49.894;8.084;2023-08-31T12:53:24;20.70;99.90
16408;DHT22;8313;49.894;8.084;2023-08-31T12:55:49;20.70;99.90
16408;DHT22;8313;49.894;8.084;2023-08-31T12:58:16;20.80;99.90
16408;DHT22;8313;49.894;8.084;2023-08-31T13:00:41;21.00;99.90
16408;DHT22;8313;49.894;8.084;2023-08-31T13:03:11;21.00;99.90
16408;DHT22;8313;49.894;8.084;2023-08-31T13:05:39;21.00;99.90
16408;DHT22;8313;49.894;8.084;2023-08-31T13:08:06;21.10;99.90
16408;DHT22;8313;49.894;8.084;2023-08-31T13:10:32;21.20;99.90
16408;DHT22;8313;49.894;8.084;2023-08-31T13:12:57;21.40;99.90
16408;DHT22;8313;49.894;8.084;2023-08-31T13:15:23;21.50;99.90
16408;DHT22;8313;49.894;8.084;2023-08-31T13:17:49;21.60;99.90
16408;DHT22;8313;49.894;8.084;2023-08-31T13:20:14;21.70;99.90
16408;DHT22;8313;49.894;8.084;2023-08-31T13:22:40;21.70;99.90
16408;DHT22;8313;49.894;8.084;2023-08-31T13:25:06;21.70;99.90
16408;DHT22;8313;49.894;8.084;2023-08-31T13:27:33;21.60;99.40
16408;DHT22;8313;49.894;8.084;2023-08-31T13:29:59;21.50;99.70
16408;DHT22;8313;49.894;8.084;2023-08-31T13:32:25;21.40;99.90
16408;DHT22;8313;49.894;8.084;2023-08-31T13:34:51;21.40;99.90
16408;DHT22;8313;49.894;8.084;2023-08-31T13:37:19;21.40;99.90
16408;DHT22;8313;49.894;8.084;2023-08-31T13:39:44;21.20;99.90
16408;DHT22;8313;49.894;8.084;2023-08-31T13:42:10;21.20;99.90
16408;DHT22;8313;49.894;8.084;2023-08-31T13:44:36;21.10;99.90
16408;DHT22;8313;49.894;8.084;2023-08-31T13:47:01;21.20;99.90
16408;DHT22;8313;49.894;8.084;2023-08-31T13:49:29;21.40;99.90
16408;DHT22;8313;49.894;8.084;2023-08-31T13:51:56;21.60;99.50
16408;DHT22;8313;49.894;8.084;2023-08-31T13:54:21;21.60;99.20
16408;DHT22;8313;49.894;8.084;2023-08-31T13:56:47;21.60;98.80
16408;DHT22;8313;49.894;8.084;2023-08-31T13:59:15;21.40;99.10
16408;DHT22;8313;49.894;8.084;2023-08-31T14:01:41;21.30;98.90
16408;DHT22;8313;49.894;8.084;2023-08-31T14:04:07;21.20;99.20
16408;DHT22;8313;49.894;8.084;2023-08-31T14:06:32;21.20;99.90
16408;DHT22;8313;49.894;8.084;2023-08-31T14:08:58;21.20;99.90
16408;DHT22;8313;49.894;8.084;2023-08-31T14:11:24;21.40;99.90
16408;DHT22;8313;49.894;8.084;2023-08-31T14:13:50;21.50;99.90
16408;DHT22;8313;49.894;8.084;2023-08-31T14:16:18;21.70;99.90
16408;DHT22;8313;49.894;8.084;2023-08-31T14:18:43;21.70;99.90
16408;DHT22;8313;49.894;8.084;2023-08-31T14:21:15;21.70;99.40
16408;DHT22;8313;49.894;8.084;2023-08-31T14:23:40;21.50;99.60
16408;DHT22;8313;49.894;8.084;2023-08-31T14:26:06;21.50;99.70
16408;DHT22;8313;49.894;8.084;2023-08-31T14:28:34;21.30;99.90
16408;DHT22;8313;49.894;8.084;2023-08-31T14:31:06;21.20;99.90
16408;DHT22;8313;49.894;8.084;2023-08-31T14:33:33;21.20;99.90
16408;DHT22;8313;49.894;8.084;2023-08-31T14:35:58;21.10;99.90
16408;DHT22;8313;49.894;8.084;2023-08-31T14:38:24;21.10;99.90
16408;DHT22;8313;49.894;8.084;2023-08-31T14:40:51;21.00;99.90
16408;DHT22;8313;49.894;8.084;2023-08-31T14:43:17;20.80;99.90
16408;DHT22;8313;49.894;8.084;2023-08-31T14:45:43;20.70;99.90
16408;DHT22;8313;49.894;8.084;2023-08-31T14:48:08;20.70;99.90
16408;DHT22;8313;49.894;8.084;2023-08-31T14:50:34;20.70;99.90
16408;DHT22;8313;49.894;8.084;2023-08-31T14:53:00;20.60;99.90
16408;DHT22;8313;49.894;8.084;2023-08-31T14:55:25;20.60;99.90
16408;DHT22;8313;49.894;8.084;2023-08-31T14:57:51;20.60;99.90
16408;DHT22;8313;49.894;8.084;2023-08-31T15:00:17;20.50;99.90
16408;DHT22;8313;49.894;8.084;2023-08-31T15:02:44;20.50;99.90
16408;DHT22;8313;49.894;8.084;2023-08-31T15:05:09;20.40;99.90
16408;DHT22;8313;49.894;8.084;2023-08-31T15:07:35;20.40;99.90
16408;DHT22;8313;49.894;8.084;2023-08-31T15:10:01;20.40;99.90
16408;DHT22;8313;49.894;8.084;2023-08-31T15:12:27;20.40;99.90
16408;DHT22;8313;49.894;8.084;2023-08-31T15:14:52;20.40;99.90
16408;DHT22;8313;49.894;8.084;2023-08-31T15:17:18;20.40;99.90
16408;DHT22;8313;49.894;8.084;2023-08-31T15:19:44;20.40;99.90
16408;DHT22;8313;49.894;8.084;2023-08-31T15:22:09;20.20;99.90
16408;DHT22;8313;49.894;8.084;2023-08-31T15:24:35;20.10;99.90
16408;DHT22;8313;49.894;8.084;2023-08-31T15:27:02;20.00;99.90
16408;DHT22;8313;49.894;8.084;2023-08-31T15:29:29;19.90;99.90
16408;DHT22;8313;49.894;8.084;2023-08-31T15:31:56;19.90;99.90
16408;DHT22;8313;49.894;8.084;2023-08-31T15:34:22;19.80;99.90
16408;DHT22;8313;49.894;8.084;2023-08-31T15:36:48;19.90;99.90
16408;DHT22;8313;49.894;8.084;2023-08-31T15:39:13;19.90;99.90
16408;DHT22;8313;49.894;8.084;2023-08-31T15:41:39;19.80;99.90
16408;DHT22;8313;49.894;8.084;2023-08-31T15:44:05;19.80;99.90
16408;DHT22;8313;49.894;8.084;2023-08-31T15:46:31;19.80;99.90
16408;DHT22;8313;49.894;8.084;2023-08-31T15:48:57;19.90;99.90
16408;DHT22;8313;49.894;8.084;2023-08-31T15:51:22;19.90;99.90
16408;DHT22;8313;49.894;8.084;2023-08-31T15:53:48;19.90;99.90
16408;DHT22;8313;49.894;8.084;2023-08-31T15:56:14;19.90;99.90
16408;DHT22;8313;49.894;8.084;2023-08-31T15:58:39;19.90;99.90
16408;DHT22;8313;49.894;8.084;2023-08-31T16:01:10;20.00;99.90